Dades meteomassalio
Diari Summary for Juliol 25, 2017 Units:  English    Metric   Both
« Previous Day
Next Day »
Diari Semanal Mensual Anual Personalitzat
  Maxima: Minima: Mijana:
Temperatura: TemperatureC °F 16.9 °F 21.5 °F
Rosada: DewpointC °F 10.5 °F 11.8 °F
Humitat: Humidity % 36 % 55 %
Velocitat del vent: WindSpeedKMH mph 0.0 mph 26.7 mph
Racha vent: WindSpeedGustKMH mph - -
Vent:- - WNW
Pressio: PressurehPa in 1013.4 in -
Pluja: 0.0 in    
Historical Graphs
 
 
Tabular Data for Juliol 25, 2017
Time Temperature Dew Point Pressure Wind Wind Speed Wind Gust Humidity Rainfall Rate (Hourly) solar Conditions
TemperatureC °F DewpointC °F PressurehPa in Calm     Humidity % HourlyPrecipMM in SolarRadiationWatts/m^2 W/m2 Conditions
00:02 20.6 °F 13.5 °F 1018.2 in West 27.8 mph 27.8 mph 64 % 0.0 in 0.0 W/m2 CLR
00:07 20.5 °F 13.4 °F 1018.2 in West 33.8 mph 33.8 mph 64 % 0.0 in 0.0 W/m2 CLR
00:12 20.4 °F 13.3 °F 1018.2 in WNW 31.5 mph 31.5 mph 64 % 0.0 in 0.0 W/m2 CLR
00:17 20.3 °F 13.6 °F 1018.2 in West 35.2 mph 35.2 mph 65 % 0.0 in 0.0 W/m2 CLR
00:22 20.2 °F 13.4 °F 1018.2 in West 38.9 mph 38.9 mph 65 % 0.0 in 0.0 W/m2 CLR
00:27 20.1 °F 13.3 °F 1018.2 in WNW 22.5 mph 22.5 mph 65 % 0.0 in 0.0 W/m2 CLR
00:32 20.1 °F 13.3 °F 1018.2 in West 38.9 mph 38.9 mph 65 % 0.0 in 0.0 W/m2 CLR
00:37 20.0 °F 13.2 °F 1018.2 in West 35.4 mph 35.4 mph 65 % 0.0 in 0.0 W/m2 CLR
00:42 20.0 °F 13.2 °F 1018.2 in West 29.6 mph 29.6 mph 65 % 0.0 in 0.0 W/m2 CLR
00:47 20.0 °F 13.2 °F 1018.2 in West 42.6 mph 42.6 mph 65 % 0.0 in 0.0 W/m2 CLR
00:52 19.9 °F 13.2 °F 1018.2 in West 37.0 mph 37.0 mph 65 % 0.0 in 0.0 W/m2 CLR
00:57 19.8 °F 13.3 °F 1018.2 in WNW 33.3 mph 33.3 mph 66 % 0.0 in 0.0 W/m2 CLR
01:02 19.7 °F 13.2 °F 1018.2 in WNW 31.5 mph 31.5 mph 66 % 0.0 in 0.0 W/m2 CLR
01:07 19.6 °F 13.3 °F 1018.2 in WNW 27.8 mph 27.8 mph 67 % 0.0 in 0.0 W/m2 CLR
01:12 19.6 °F 13.3 °F 1018.2 in WNW 33.3 mph 33.3 mph 67 % 0.0 in 0.0 W/m2 CLR
01:17 19.5 °F 13.2 °F 1018.2 in WNW 25.9 mph 25.9 mph 67 % 0.0 in 0.0 W/m2 CLR
01:22 19.4 °F 13.2 °F 1018.2 in WNW 35.2 mph 35.2 mph 67 % 0.0 in 0.0 W/m2 CLR
01:27 19.5 °F 13.0 °F 1018.2 in West 31.5 mph 31.5 mph 66 % 0.0 in 0.0 W/m2 CLR
01:37 19.4 °F 12.9 °F 1017.8 in WNW 25.9 mph 25.9 mph 66 % 0.0 in 0.0 W/m2 CLR
01:42 19.4 °F 12.9 °F 1017.8 in West 37.0 mph 37.0 mph 66 % 0.0 in 0.0 W/m2 CLR
01:47 19.3 °F 12.8 °F 1017.8 in West 35.4 mph 35.4 mph 66 % 0.0 in 0.0 W/m2 CLR
01:52 19.3 °F 13.1 °F 1018.2 in WSW 31.5 mph 31.5 mph 67 % 0.0 in 0.0 W/m2 CLR
02:02 19.2 °F 12.9 °F 1018.2 in West 25.9 mph 25.9 mph 67 % 0.0 in 0.0 W/m2 CLR
02:07 19.1 °F 13.1 °F 1018.2 in West 24.1 mph 24.1 mph 68 % 0.0 in 0.0 W/m2 CLR
02:12 19.0 °F 12.9 °F 1018.2 in NW 31.5 mph 31.5 mph 68 % 0.0 in 0.0 W/m2 CLR
02:17 18.9 °F 12.8 °F 1018.2 in WNW 22.5 mph 22.5 mph 68 % 0.0 in 0.0 W/m2 CLR
02:23 18.8 °F 13.0 °F 1018.2 in West 25.9 mph 25.9 mph 69 % 0.0 in 0.0 W/m2 CLR
02:28 18.7 °F 12.9 °F 1018.2 in WNW 27.4 mph 27.4 mph 69 % 0.0 in 0.0 W/m2 CLR
02:33 18.7 °F 13.1 °F 1018.2 in West 37.0 mph 37.0 mph 70 % 0.0 in 0.0 W/m2 CLR
02:38 18.6 °F 13.1 °F 1018.2 in WNW 33.3 mph 33.3 mph 70 % 0.0 in 0.0 W/m2 CLR
02:48 18.5 °F 12.9 °F 1018.2 in West 31.5 mph 31.5 mph 70 % 0.0 in 0.0 W/m2 CLR
02:53 18.4 °F 12.9 °F 1018.2 in West 29.6 mph 29.6 mph 70 % 0.0 in 0.0 W/m2 CLR
02:58 18.4 °F 12.8 °F 1017.8 in WNW 38.9 mph 38.9 mph 70 % 0.0 in 0.0 W/m2 CLR
03:03 18.4 °F 12.8 °F 1017.8 in WNW 29.6 mph 29.6 mph 70 % 0.0 in 0.0 W/m2 CLR
03:08 18.3 °F 13.0 °F 1017.8 in WNW 38.9 mph 38.9 mph 71 % 0.0 in 0.0 W/m2 CLR
03:13 18.3 °F 12.9 °F 1017.8 in WNW 35.4 mph 35.4 mph 71 % 0.0 in 0.0 W/m2 CLR
03:18 18.2 °F 12.9 °F 1017.5 in WNW 32.2 mph 32.2 mph 71 % 0.0 in 0.0 W/m2 CLR
03:23 18.1 °F 13.0 °F 1017.5 in WNW 42.6 mph 42.6 mph 72 % 0.0 in 0.0 W/m2 CLR
03:28 18.0 °F 12.9 °F 1017.5 in NW 43.4 mph 43.4 mph 72 % 0.0 in 0.0 W/m2 CLR
03:38 18.0 °F 12.7 °F 1017.2 in WNW 42.6 mph 42.6 mph 71 % 0.0 in 0.0 W/m2 CLR
03:43 17.9 °F 12.6 °F 1017.2 in West 37.0 mph 37.0 mph 71 % 0.0 in 0.0 W/m2 CLR
03:48 17.9 °F 12.6 °F 1017.2 in WNW 38.9 mph 38.9 mph 71 % 0.0 in 0.0 W/m2 CLR
03:53 17.8 °F 12.5 °F 1017.2 in WNW 33.3 mph 33.3 mph 71 % 0.0 in 0.0 W/m2 CLR
03:58 17.8 °F 12.5 °F 1017.2 in WNW 24.1 mph 24.1 mph 71 % 0.0 in 0.0 W/m2 CLR
04:03 17.8 °F 12.4 °F 1017.2 in West 35.2 mph 35.2 mph 71 % 0.0 in 0.0 W/m2 CLR
04:08 17.8 °F 12.4 °F 1017.2 in West 31.5 mph 31.5 mph 71 % 0.0 in 0.0 W/m2 CLR
04:13 17.8 °F 12.4 °F 1017.2 in WNW 25.9 mph 25.9 mph 71 % 0.0 in 0.0 W/m2 CLR
04:18 17.7 °F 12.4 °F 1017.2 in WNW 27.8 mph 27.8 mph 71 % 0.0 in 0.0 W/m2 CLR
04:23 17.7 °F 12.3 °F 1017.5 in West 16.7 mph 16.7 mph 71 % 0.0 in 0.0 W/m2 CLR
04:28 17.6 °F 12.3 °F 1017.5 in WSW 16.7 mph 16.7 mph 71 % 0.0 in 0.0 W/m2 CLR
04:33 17.6 °F 12.3 °F 1017.5 in NW 18.5 mph 18.5 mph 71 % 0.0 in 0.0 W/m2 CLR
04:38 17.6 °F 12.2 °F 1017.5 in WSW 1.9 mph   71 % 0.0 in 0.0 W/m2 CLR
04:43 17.5 °F 12.2 °F 1017.5 in NW 7.4 mph   71 % 0.0 in 0.0 W/m2 CLR
04:48 17.4 °F 12.1 °F 1017.2 in West 18.5 mph 18.5 mph 71 % 0.0 in 0.0 W/m2 CLR
04:53 17.4 °F 12.1 °F 1017.2 in WNW 16.7 mph 16.7 mph 71 % 0.0 in 0.0 W/m2 CLR
04:58 17.4 °F 12.1 °F 1017.2 in West 20.4 mph 20.4 mph 71 % 0.0 in 0.0 W/m2 CLR
05:03 17.4 °F 12.1 °F 1017.2 in WNW 18.5 mph 18.5 mph 71 % 0.0 in 0.0 W/m2 CLR
05:08 17.4 °F 12.1 °F 1017.2 in WNW 24.1 mph 24.1 mph 71 % 0.0 in 0.0 W/m2 CLR
05:13 17.3 °F 12.0 °F 1017.2 in WNW 24.1 mph 24.1 mph 71 % 0.0 in 0.0 W/m2 CLR
05:18 17.3 °F 12.0 °F 1017.2 in WNW 25.9 mph 25.9 mph 71 % 0.0 in 0.0 W/m2 CLR
05:23 17.3 °F 11.9 °F 1017.2 in West 29.6 mph 29.6 mph 71 % 0.0 in 0.0 W/m2 CLR
05:28 17.3 °F 12.0 °F 1016.8 in West 25.9 mph 25.9 mph 71 % 0.0 in 0.0 W/m2 CLR
05:33 17.2 °F 11.9 °F 1017.2 in WNW 25.7 mph 25.7 mph 71 % 0.0 in 0.0 W/m2 CLR
05:38 17.2 °F 11.9 °F 1017.2 in West 25.9 mph 25.9 mph 71 % 0.0 in 0.0 W/m2 CLR
05:43 17.2 °F 11.9 °F 1017.5 in West 18.5 mph 18.5 mph 71 % 0.0 in 0.0 W/m2 CLR
05:48 17.1 °F 11.8 °F 1017.2 in WNW 13.0 mph 13.0 mph 71 % 0.0 in 0.0 W/m2 CLR
05:58 17.1 °F 11.9 °F 1017.2 in West 19.3 mph 19.3 mph 72 % 0.0 in 0.0 W/m2 CLR
06:03 17.1 °F 12.0 °F 1017.2 in West 18.5 mph 18.5 mph 72 % 0.0 in 0.0 W/m2 CLR
06:08 17.2 °F 11.9 °F 1017.2 in West 25.9 mph 25.9 mph 71 % 0.0 in 0.0 W/m2 CLR
06:13 17.1 °F 11.8 °F 1017.2 in West 18.5 mph 18.5 mph 71 % 0.0 in 0.0 W/m2 CLR
06:18 17.1 °F 11.8 °F 1017.2 in West 20.4 mph 20.4 mph 71 % 0.0 in 0.0 W/m2 CLR
06:23 17.1 °F 11.9 °F 1017.2 in WSW 11.1 mph 11.1 mph 72 % 0.0 in 0.0 W/m2 CLR
06:28 17.0 °F 11.9 °F 1017.2 in WSW 18.5 mph 18.5 mph 72 % 0.0 in 0.0 W/m2 CLR
06:33 17.1 °F 11.9 °F 1017.5 in West 20.4 mph 20.4 mph 72 % 0.0 in 0.0 W/m2 CLR
06:38 17.1 °F 11.9 °F 1017.5 in West 14.8 mph 14.8 mph 72 % 0.0 in 0.0 W/m2 OVC
06:43 17.0 °F 11.9 °F 1017.5 in WNW 20.4 mph 20.4 mph 72 % 0.0 in 0.0 W/m2 OVC
06:48 16.9 °F 11.8 °F 1017.5 in NW 25.9 mph 25.9 mph 72 % 0.0 in 0.0 W/m2 OVC
06:53 16.9 °F 11.8 °F 1017.2 in WNW 30.6 mph 30.6 mph 72 % 0.0 in 7.0 W/m2 OVC
06:58 16.9 °F 11.8 °F 1017.5 in NW 31.5 mph 31.5 mph 72 % 0.0 in 9.0 W/m2 BKN
07:03 17.1 °F 11.8 °F 1017.5 in West 29.6 mph 29.6 mph 71 % 0.0 in 11.0 W/m2 BKN
07:08 17.1 °F 11.8 °F 1017.5 in West 20.4 mph 20.4 mph 71 % 0.0 in 14.0 W/m2 BKN
07:13 17.2 °F 11.7 °F 1017.5 in West 8.0 mph 8.0 mph 70 % 0.0 in 19.0 W/m2 BKN
07:18 17.1 °F 11.6 °F 1017.5 in WNW 13.0 mph 13.0 mph 70 % 0.0 in 19.0 W/m2 BKN
07:23 17.2 °F 11.7 °F 1017.5 in West 18.5 mph 18.5 mph 70 % 0.0 in 23.0 W/m2 BKN
07:28 17.2 °F 11.7 °F 1017.5 in West 22.2 mph 22.2 mph 70 % 0.0 in 30.0 W/m2 BKN
07:33 17.3 °F 11.8 °F 1017.5 in West 18.5 mph 18.5 mph 70 % 0.0 in 44.0 W/m2 BKN
07:38 17.3 °F 11.8 °F 1017.5 in West 31.5 mph 31.5 mph 70 % 0.0 in 58.0 W/m2 SCT
07:43 17.4 °F 11.7 °F 1017.5 in West 27.4 mph 27.4 mph 69 % 0.0 in 76.0 W/m2 FEW
07:48 17.4 °F 11.7 °F 1017.5 in West 24.1 mph 24.1 mph 69 % 0.0 in 84.0 W/m2 FEW
07:53 17.6 °F 11.8 °F 1017.5 in West 24.1 mph 24.1 mph 69 % 0.0 in 100.0 W/m2 FEW
07:58 17.6 °F 11.6 °F 1017.2 in West 29.6 mph 29.6 mph 68 % 0.0 in 116.0 W/m2 CLR
08:03 17.6 °F 11.6 °F 1017.2 in WNW 25.9 mph 25.9 mph 68 % 0.0 in 134.0 W/m2 CLR
08:09 17.7 °F 11.7 °F 1017.2 in WNW 27.8 mph 27.8 mph 68 % 0.0 in 149.0 W/m2 CLR
08:14 17.8 °F 11.8 °F 1017.5 in WNW 27.4 mph 27.4 mph 68 % 0.0 in 172.0 W/m2 CLR
08:19 17.9 °F 11.7 °F 1017.5 in WNW 29.6 mph 29.6 mph 67 % 0.0 in 188.0 W/m2 CLR
08:24 18.0 °F 11.8 °F 1017.2 in NW 29.6 mph 29.6 mph 67 % 0.0 in 207.0 W/m2 CLR
08:29 18.1 °F 11.7 °F 1017.2 in WNW 20.4 mph 20.4 mph 66 % 0.0 in 223.0 W/m2 CLR
08:34 18.2 °F 11.8 °F 1017.5 in West 22.2 mph 22.2 mph 66 % 0.0 in 244.0 W/m2 CLR
08:39 18.3 °F 11.6 °F 1017.5 in WNW 25.9 mph 25.9 mph 65 % 0.0 in 281.0 W/m2 CLR
08:44 18.5 °F 11.6 °F 1017.5 in NW 29.6 mph 29.6 mph 64 % 0.0 in 285.0 W/m2 CLR
08:49 18.4 °F 11.5 °F 1017.5 in WNW 31.5 mph 31.5 mph 64 % 0.0 in 288.0 W/m2 CLR
08:54 18.6 °F 11.8 °F 1017.5 in WNW 29.6 mph 29.6 mph 65 % 0.0 in 306.0 W/m2 CLR
08:59 18.7 °F 11.8 °F 1017.5 in West 22.2 mph 22.2 mph 64 % 0.0 in 327.0 W/m2 CLR
09:04 18.8 °F 11.6 °F 1017.5 in West 38.9 mph 38.9 mph 63 % 0.0 in 345.0 W/m2 CLR
09:09 18.9 °F 11.9 °F 1017.5 in West 29.6 mph 29.6 mph 64 % 0.0 in 367.0 W/m2 CLR
09:14 18.9 °F 11.7 °F 1017.5 in WNW 31.5 mph 31.5 mph 63 % 0.0 in 408.0 W/m2 CLR
09:19 18.7 °F 11.8 °F 1017.5 in WNW 16.7 mph 16.7 mph 64 % 0.0 in 195.0 W/m2 CLR
09:24 18.9 °F 11.7 °F 1017.5 in NNW 27.4 mph 27.4 mph 63 % 0.0 in 144.0 W/m2 CLR
09:29 18.8 °F 11.9 °F 1017.5 in WNW 25.9 mph 25.9 mph 64 % 0.0 in 162.0 W/m2 CLR
09:34 18.8 °F 11.6 °F 1017.5 in WNW 31.5 mph 31.5 mph 63 % 0.0 in 171.0 W/m2 CLR
09:39 18.9 °F 11.7 °F 1017.5 in WNW 27.8 mph 27.8 mph 63 % 0.0 in 552.0 W/m2 CLR
09:44 19.3 °F 11.9 °F 1017.5 in WNW 29.6 mph 29.6 mph 62 % 0.0 in 541.0 W/m2 CLR
09:49 19.4 °F 11.7 °F 1017.5 in WNW 31.5 mph 31.5 mph 61 % 0.0 in 186.0 W/m2 CLR
09:54 19.4 °F 11.7 °F 1017.5 in NW 31.5 mph 31.5 mph 61 % 0.0 in 610.0 W/m2 CLR
09:59 19.6 °F 11.8 °F 1017.5 in WNW 25.7 mph 25.7 mph 61 % 0.0 in 294.0 W/m2 CLR
10:04 19.9 °F 11.6 °F 1017.5 in WNW 29.6 mph 29.6 mph 59 % 0.0 in 649.0 W/m2 CLR
10:09 19.8 °F 11.8 °F 1017.5 in NW 29.6 mph 29.6 mph 60 % 0.0 in 232.0 W/m2 CLR
10:14 20.0 °F 12.0 °F 1017.5 in NNW 24.1 mph 24.1 mph 60 % 0.0 in 214.0 W/m2 CLR
10:19 19.9 °F 11.9 °F 1017.5 in WNW 24.1 mph 24.1 mph 60 % 0.0 in 200.0 W/m2 CLR
10:24 20.1 °F 12.1 °F 1017.2 in WNW 33.3 mph 33.3 mph 60 % 0.0 in 742.0 W/m2 CLR
10:29 19.9 °F 11.9 °F 1017.2 in NNW 25.9 mph 25.9 mph 60 % 0.0 in 227.0 W/m2 CLR
10:34 20.1 °F 12.1 °F 1017.2 in WNW 33.8 mph 33.8 mph 60 % 0.0 in 336.0 W/m2 CLR
10:39 20.0 °F 11.7 °F 1017.2 in NW 24.1 mph 24.1 mph 59 % 0.0 in 193.0 W/m2 CLR
10:44 20.2 °F 12.2 °F 1017.2 in WNW 25.9 mph 25.9 mph 60 % 0.0 in 204.0 W/m2 CLR
10:49 20.7 °F 12.4 °F 1017.2 in WSW 22.5 mph 22.5 mph 59 % 0.0 in 777.0 W/m2 CLR
10:54 20.8 °F 11.9 °F 1017.2 in NW 24.1 mph 24.1 mph 57 % 0.0 in 561.0 W/m2 CLR
10:59 20.7 °F 12.2 °F 1017.2 in WNW 25.9 mph 25.9 mph 58 % 0.0 in 744.0 W/m2 CLR
11:02 20.9 °F 12.1 °F 1017.2 in WNW 18.5 mph 18.5 mph 57 % 0.0 in 773.0 W/m2 CLR
11:07 21.1 °F 12.2 °F 1017.2 in NNW 25.9 mph 25.9 mph 57 % 0.0 in 213.0 W/m2 CLR
11:12 20.9 °F 11.8 °F 1017.2 in West 37.0 mph 37.0 mph 56 % 0.0 in 826.0 W/m2 CLR
11:17 21.0 °F 11.9 °F 1016.8 in NNW 29.0 mph 29.0 mph 56 % 0.0 in 754.0 W/m2 CLR
11:23 21.4 °F 11.7 °F 1017.2 in NW 29.6 mph 29.6 mph 54 % 0.0 in 747.0 W/m2 CLR
11:28 21.7 °F 11.9 °F 1016.8 in WNW 31.5 mph 31.5 mph 54 % 0.0 in 744.0 W/m2 CLR
11:33 21.8 °F 12.1 °F 1016.8 in WNW 37.0 mph 37.0 mph 54 % 0.0 in 754.0 W/m2 CLR
11:38 21.9 °F 11.9 °F 1016.8 in West 25.9 mph 25.9 mph 53 % 0.0 in 763.0 W/m2 CLR
11:43 21.9 °F 11.6 °F 1016.5 in WNW 33.3 mph 33.3 mph 52 % 0.0 in 772.0 W/m2 CLR
11:48 21.9 °F 11.6 °F 1016.5 in WNW 35.2 mph 35.2 mph 52 % 0.0 in 782.0 W/m2 CLR
11:53 22.3 °F 11.7 °F 1016.5 in WNW 33.3 mph 33.3 mph 51 % 0.0 in 791.0 W/m2 CLR
11:58 22.6 °F 11.7 °F 1016.5 in West 31.5 mph 31.5 mph 50 % 0.0 in 802.0 W/m2 CLR
12:03 22.6 °F 11.7 °F 1016.5 in WNW 35.2 mph 35.2 mph 50 % 0.0 in 809.0 W/m2 CLR
12:08 22.7 °F 11.7 °F 1016.5 in WNW 25.9 mph 25.9 mph 50 % 0.0 in 816.0 W/m2 CLR
12:13 22.8 °F 11.9 °F 1016.5 in WNW 27.8 mph 27.8 mph 50 % 0.0 in 826.0 W/m2 CLR
12:18 23.1 °F 11.5 °F 1016.5 in NW 33.3 mph 33.3 mph 48 % 0.0 in 833.0 W/m2 CLR
12:23 23.0 °F 11.7 °F 1016.5 in NNW 20.4 mph 20.4 mph 49 % 0.0 in 842.0 W/m2 CLR
12:28 23.2 °F 11.6 °F 1016.5 in West 31.5 mph 31.5 mph 48 % 0.0 in 851.0 W/m2 CLR
12:33 23.4 °F 11.8 °F 1016.1 in NW 33.3 mph 33.3 mph 48 % 0.0 in 856.0 W/m2 CLR
12:38 23.4 °F 11.5 °F 1016.5 in NW 33.3 mph 33.3 mph 47 % 0.0 in 863.0 W/m2 CLR
12:43 23.6 °F 11.6 °F 1016.1 in NW 22.5 mph 22.5 mph 47 % 0.0 in 870.0 W/m2 CLR
12:48 23.7 °F 11.7 °F 1016.1 in WNW 31.5 mph 31.5 mph 47 % 0.0 in 879.0 W/m2 CLR
12:53 23.8 °F 11.8 °F 1016.1 in NNW 31.5 mph 31.5 mph 47 % 0.0 in 881.0 W/m2 CLR
12:58 23.4 °F 11.5 °F 1016.1 in NNW 37.0 mph 37.0 mph 47 % 0.0 in 886.0 W/m2 CLR
13:03 23.5 °F 11.6 °F 1016.1 in NW 31.5 mph 31.5 mph 47 % 0.0 in 893.0 W/m2 CLR
13:08 23.4 °F 11.5 °F 1016.1 in WNW 37.0 mph 37.0 mph 47 % 0.0 in 896.0 W/m2 CLR
13:13 23.6 °F 11.9 °F 1015.8 in WNW 27.8 mph 27.8 mph 48 % 0.0 in 902.0 W/m2 CLR
13:18 24.1 °F 12.1 °F 1015.8 in NW 33.3 mph 33.3 mph 47 % 0.0 in 905.0 W/m2 CLR
13:23 24.1 °F 11.8 °F 1016.1 in NW 33.3 mph 33.3 mph 46 % 0.0 in 909.0 W/m2 CLR
13:28 24.1 °F 11.7 °F 1016.1 in NNW 32.2 mph 32.2 mph 46 % 0.0 in 911.0 W/m2 CLR
13:33 24.2 °F 11.8 °F 1015.8 in NNW 33.3 mph 33.3 mph 46 % 0.0 in 914.0 W/m2 CLR
13:38 24.5 °F 11.8 °F 1015.8 in WNW 27.8 mph 27.8 mph 45 % 0.0 in 916.0 W/m2 CLR
13:43 24.6 °F 11.8 °F 1015.8 in NW 29.6 mph 29.6 mph 45 % 0.0 in 919.0 W/m2 CLR
13:48 24.7 °F 11.7 °F 1015.8 in NW 35.2 mph 35.2 mph 44 % 0.0 in 921.0 W/m2 CLR
13:53 24.8 °F 12.1 °F 1015.8 in NNW 25.9 mph 25.9 mph 45 % 0.0 in 921.0 W/m2 CLR
13:58 24.9 °F 11.8 °F 1015.5 in WNW 31.5 mph 31.5 mph 44 % 0.0 in 923.0 W/m2 CLR
14:03 24.8 °F 11.7 °F 1015.8 in NW 31.5 mph 31.5 mph 44 % 0.0 in 926.0 W/m2 CLR
14:08 24.9 °F 11.8 °F 1015.5 in NW 29.6 mph 29.6 mph 44 % 0.0 in 925.0 W/m2 CLR
14:13 25.2 °F 12.1 °F 1015.5 in NNW 20.4 mph 20.4 mph 44 % 0.0 in 923.0 W/m2 CLR
14:18 25.3 °F 11.5 °F 1015.5 in WNW 35.2 mph 35.2 mph 42 % 0.0 in 925.0 W/m2 CLR
14:23 25.3 °F 11.5 °F 1015.5 in NNW 22.2 mph 22.2 mph 42 % 0.0 in 923.0 W/m2 CLR
14:28 25.6 °F 12.1 °F 1015.5 in West 18.5 mph 18.5 mph 43 % 0.0 in 918.0 W/m2 CLR
14:33 25.6 °F 11.7 °F 1015.1 in NW 33.3 mph 33.3 mph 42 % 0.0 in 919.0 W/m2 CLR
14:38 25.6 °F 11.7 °F 1015.1 in WNW 29.0 mph 29.0 mph 42 % 0.0 in 918.0 W/m2 CLR
14:43 25.9 °F 12.0 °F 1015.1 in NW 22.5 mph 22.5 mph 42 % 0.0 in 916.0 W/m2 CLR
14:45 25.9 °F 12.1 °F 1015.1 in NW 31.5 mph 31.5 mph 42 % 0.0 in 916.0 W/m2 CLR
14:50 26.0 °F 12.1 °F 1015.1 in NW 25.9 mph 25.9 mph 42 % 0.0 in 912.0 W/m2 CLR
14:55 26.1 °F 11.8 °F 1014.8 in NW 29.6 mph 29.6 mph 41 % 0.0 in 905.0 W/m2 CLR
15:00 26.2 °F 11.9 °F 1014.8 in WNW 32.2 mph 32.2 mph 41 % 0.0 in 902.0 W/m2 CLR
15:05 26.2 °F 11.9 °F 1014.8 in NW 19.3 mph 19.3 mph 41 % 0.0 in 898.0 W/m2 CLR
15:10 26.3 °F 11.7 °F 1014.8 in NW 25.9 mph 25.9 mph 40 % 0.0 in 895.0 W/m2 CLR
15:15 26.3 °F 12.0 °F 1014.8 in NNW 22.2 mph 22.2 mph 41 % 0.0 in 888.0 W/m2 CLR
15:20 26.6 °F 12.2 °F 1014.4 in NW 20.4 mph 20.4 mph 41 % 0.0 in 882.0 W/m2 CLR
15:25 26.6 °F 11.9 °F 1014.4 in West 33.3 mph 33.3 mph 40 % 0.0 in 879.0 W/m2 CLR
15:30 26.8 °F 12.8 °F 1014.4 in WNW 24.1 mph 24.1 mph 42 % 0.0 in 870.0 W/m2 CLR
15:35 26.8 °F 12.1 °F 1014.4 in North 18.5 mph 18.5 mph 40 % 0.0 in 865.0 W/m2 CLR
15:40 26.9 °F 12.2 °F 1014.4 in NW 32.2 mph 32.2 mph 40 % 0.0 in 858.0 W/m2 CLR
15:45 27.1 °F 11.9 °F 1014.4 in WNW 24.1 mph 24.1 mph 39 % 0.0 in 853.0 W/m2 CLR
15:50 27.2 °F 12.0 °F 1014.4 in NNW 25.9 mph 25.9 mph 39 % 0.0 in 844.0 W/m2 CLR
15:55 27.1 °F 11.9 °F 1014.4 in NW 25.9 mph 25.9 mph 39 % 0.0 in 837.0 W/m2 CLR
16:00 27.1 °F 11.9 °F 1014.1 in NW 24.1 mph 24.1 mph 39 % 0.0 in 828.0 W/m2 CLR
16:05 27.1 °F 11.9 °F 1014.1 in NW 31.5 mph 31.5 mph 39 % 0.0 in 819.0 W/m2 CLR
16:11 27.4 °F 12.7 °F 1014.1 in WNW 24.1 mph 24.1 mph 40 % 0.0 in 810.0 W/m2 CLR
16:16 27.1 °F 11.9 °F 1014.1 in WNW 38.9 mph 38.9 mph 39 % 0.0 in 802.0 W/m2 CLR
16:21 27.0 °F 12.2 °F 1014.1 in WNW 42.6 mph 42.6 mph 40 % 0.0 in 793.0 W/m2 CLR
16:26 27.1 °F 11.5 °F 1014.1 in WNW 27.4 mph 27.4 mph 38 % 0.0 in 782.0 W/m2 CLR
16:31 26.8 °F 11.7 °F 1014.1 in WNW 29.6 mph 29.6 mph 39 % 0.0 in 773.0 W/m2 CLR
16:36 27.1 °F 12.3 °F 1014.1 in NW 29.6 mph 29.6 mph 40 % 0.0 in 765.0 W/m2 CLR
16:41 27.0 °F 12.2 °F 1014.1 in NW 37.0 mph 37.0 mph 40 % 0.0 in 754.0 W/m2 CLR
16:46 27.1 °F 12.3 °F 1013.8 in NW 25.9 mph 25.9 mph 40 % 0.0 in 744.0 W/m2 CLR
16:51 26.9 °F 11.8 °F 1013.8 in West 42.6 mph 42.6 mph 39 % 0.0 in 733.0 W/m2 CLR
16:56 27.1 °F 12.3 °F 1014.1 in NW 31.5 mph 31.5 mph 40 % 0.0 in 719.0 W/m2 CLR
17:01 27.1 °F 12.3 °F 1013.8 in North 24.1 mph 24.1 mph 40 % 0.0 in 703.0 W/m2 CLR
17:06 27.0 °F 12.2 °F 1013.8 in WNW 33.3 mph 33.3 mph 40 % 0.0 in 700.0 W/m2 CLR
17:11 26.9 °F 12.5 °F 1013.8 in NW 33.3 mph 33.3 mph 41 % 0.0 in 710.0 W/m2 CLR
17:16 26.9 °F 12.5 °F 1013.8 in NW 27.8 mph 27.8 mph 41 % 0.0 in 682.0 W/m2 CLR
17:21 26.7 °F 12.0 °F 1013.8 in NNW 37.0 mph 37.0 mph 40 % 0.0 in 497.0 W/m2 CLR
17:26 26.7 °F 11.9 °F 1013.8 in NW 38.9 mph 38.9 mph 40 % 0.0 in 700.0 W/m2 CLR
17:31 26.6 °F 11.9 °F 1013.8 in NNW 40.7 mph 40.7 mph 40 % 0.0 in 670.0 W/m2 CLR
17:36 26.8 °F 12.1 °F 1013.8 in WNW 33.3 mph 33.3 mph 40 % 0.0 in 633.0 W/m2 CLR
17:41 26.8 °F 12.1 °F 1013.8 in WNW 27.8 mph 27.8 mph 40 % 0.0 in 638.0 W/m2 CLR
17:46 27.0 °F 11.9 °F 1013.8 in NNW 25.9 mph 25.9 mph 39 % 0.0 in 622.0 W/m2 CLR
17:51 26.9 °F 11.8 °F 1013.8 in NW 33.3 mph 33.3 mph 39 % 0.0 in 617.0 W/m2 CLR
17:56 26.9 °F 11.8 °F 1013.8 in NW 25.9 mph 25.9 mph 39 % 0.0 in 615.0 W/m2 CLR
18:01 26.8 °F 10.5 °F 1013.8 in West 37.0 mph 37.0 mph 36 % 0.0 in 592.0 W/m2 CLR
18:06 26.6 °F 11.1 °F 1013.4 in WNW 33.3 mph 33.3 mph 38 % 0.0 in 547.0 W/m2 CLR
18:11 26.7 °F 11.6 °F 1013.4 in WNW 29.0 mph 29.0 mph 39 % 0.0 in 520.0 W/m2 CLR
18:12 26.8 °F 11.3 °F 1013.4 in WNW 24.1 mph 24.5 mph 38 % 0.0 in 519.0 W/m2 CLR
18:17 26.7 °F 11.2 °F 1013.8 in NW 31.5 mph 31.5 mph 38 % 0.0 in 503.0 W/m2 CLR
18:22 26.6 °F 11.5 °F 1013.4 in NNW 22.2 mph 22.2 mph 39 % 0.0 in 487.0 W/m2 CLR
18:27 26.9 °F 11.8 °F 1013.4 in NNW 25.9 mph 25.9 mph 39 % 0.0 in 473.0 W/m2 CLR
18:32 27.0 °F 11.4 °F 1013.4 in NW 24.1 mph 24.1 mph 38 % 0.0 in 461.0 W/m2 CLR
18:37 26.6 °F 11.1 °F 1013.8 in WNW 31.5 mph 31.5 mph 38 % 0.0 in 441.0 W/m2 CLR
18:42 26.5 °F 11.4 °F 1013.8 in NW 24.1 mph 24.1 mph 39 % 0.0 in 427.0 W/m2 CLR
18:47 26.3 °F 10.9 °F 1013.4 in NNW 33.8 mph 33.8 mph 38 % 0.0 in 417.0 W/m2 CLR
18:52 26.2 °F 11.1 °F 1013.8 in NNW 31.5 mph 31.5 mph 39 % 0.0 in 404.0 W/m2 CLR
18:53 26.2 °F 11.2 °F 1013.8 in NW 35.2 mph 35.2 mph 39 % 0.0 in 403.0 W/m2 CLR
18:58 26.1 °F 11.4 °F 1013.4 in NW 20.9 mph 20.9 mph 40 % 0.0 in 366.0 W/m2 CLR
19:03 26.2 °F 11.5 °F 1013.4 in NNW 29.0 mph 29.0 mph 40 % 0.0 in 373.0 W/m2 CLR
19:08 26.0 °F 10.9 °F 1013.4 in WNW 33.3 mph 33.3 mph 39 % 0.0 in 213.0 W/m2 CLR
19:13 25.6 °F 11.0 °F 1013.4 in WNW 22.2 mph 22.2 mph 40 % 0.0 in 139.0 W/m2 CLR
19:18 25.4 °F 11.2 °F 1013.4 in NW 22.2 mph 22.2 mph 41 % 0.0 in 69.0 W/m2 CLR
19:23 25.1 °F 11.2 °F 1013.4 in NW 31.5 mph 31.5 mph 42 % 0.0 in 63.0 W/m2 FEW
19:28 24.8 °F 10.6 °F 1013.4 in WNW 29.6 mph 29.6 mph 41 % 0.0 in 70.0 W/m2 SCT
19:33 24.7 °F 10.6 °F 1013.4 in WNW 22.2 mph 22.2 mph 41 % 0.0 in 95.0 W/m2 FEW
19:38 24.6 °F 10.8 °F 1013.4 in WNW 29.6 mph 29.6 mph 42 % 0.0 in 141.0 W/m2 CLR
19:43 24.7 °F 10.9 °F 1013.4 in WNW 25.9 mph 25.9 mph 42 % 0.0 in 241.0 W/m2 CLR
19:48 24.9 °F 11.1 °F 1013.4 in NW 29.6 mph 29.6 mph 42 % 0.0 in 302.0 W/m2 CLR
19:53 25.0 °F 11.2 °F 1013.4 in NW 24.1 mph 24.1 mph 42 % 0.0 in 274.0 W/m2 CLR
19:58 25.2 °F 11.3 °F 1013.8 in West 20.9 mph 20.9 mph 42 % 0.0 in 262.0 W/m2 CLR
20:03 25.1 °F 11.3 °F 1013.8 in NW 31.5 mph 31.5 mph 42 % 0.0 in 199.0 W/m2 CLR
20:08 24.7 °F 11.3 °F 1013.4 in NNW 14.8 mph 14.8 mph 43 % 0.0 in 100.0 W/m2 CLR
20:13 24.6 °F 11.5 °F 1013.4 in NNW 17.7 mph 17.7 mph 44 % 0.0 in 79.0 W/m2 CLR
20:18 24.1 °F 11.1 °F 1013.8 in NNW 29.6 mph 29.6 mph 44 % 0.0 in 49.0 W/m2 FEW
20:23 23.9 °F 11.2 °F 1013.8 in WNW 22.2 mph 22.2 mph 45 % 0.0 in 40.0 W/m2 BKN
20:28 23.6 °F 11.0 °F 1013.8 in WNW 20.4 mph 20.4 mph 45 % 0.0 in 39.0 W/m2 BKN
20:33 23.5 °F 11.2 °F 1013.8 in NW 18.5 mph 18.5 mph 46 % 0.0 in 49.0 W/m2 SCT
20:38 23.4 °F 11.2 °F 1013.8 in West 16.7 mph 16.7 mph 46 % 0.0 in 42.0 W/m2 BKN
20:43 23.2 °F 10.9 °F 1013.8 in WNW 25.9 mph 25.9 mph 46 % 0.0 in 33.0 W/m2 BKN
20:48 23.1 °F 11.1 °F 1013.8 in WNW 25.7 mph 25.7 mph 47 % 0.0 in 30.0 W/m2 BKN
20:53 22.9 °F 11.3 °F 1014.1 in WNW 33.3 mph 33.3 mph 48 % 0.0 in 28.0 W/m2 BKN
20:58 22.7 °F 11.4 °F 1013.8 in WNW 20.4 mph 20.4 mph 49 % 0.0 in 25.0 W/m2 BKN
21:04 22.6 °F 11.3 °F 1013.8 in WNW 31.5 mph 31.5 mph 49 % 0.0 in 19.0 W/m2 BKN
21:09 22.4 °F 11.4 °F 1013.8 in West 31.5 mph 31.5 mph 50 % 0.0 in 14.0 W/m2 BKN
21:14 22.2 °F 11.3 °F 1014.1 in NNW 20.4 mph 20.4 mph 50 % 0.0 in 11.0 W/m2 BKN
21:19 22.0 °F 11.4 °F 1014.1 in NNW 25.7 mph 25.7 mph 51 % 0.0 in 5.0 W/m2 BKN
21:24 21.8 °F 11.2 °F 1014.1 in West 16.7 mph 16.7 mph 51 % 0.0 in 5.0 W/m2 OVC
21:29 21.7 °F 11.1 °F 1014.1 in West 18.5 mph 18.5 mph 51 % 0.0 in 5.0 W/m2 OVC
21:34 21.6 °F 11.3 °F 1014.4 in NW 17.7 mph 17.7 mph 52 % 0.0 in 0.0 W/m2 CLR
21:39 21.6 °F 11.3 °F 1014.4 in Calm     52 % 0.0 in 0.0 W/m2 CLR
21:44 21.4 °F 11.2 °F 1014.4 in SSW 24.1 mph 24.1 mph 52 % 0.0 in 0.0 W/m2 CLR
21:49 21.4 °F 11.1 °F 1014.4 in Calm     52 % 0.0 in 0.0 W/m2 CLR
21:54 21.3 °F 11.3 °F 1014.8 in NW 37.0 mph 37.0 mph 53 % 0.0 in 0.0 W/m2 CLR
21:59 21.2 °F 11.3 °F 1014.8 in WNW 24.1 mph 24.1 mph 53 % 0.0 in 0.0 W/m2 CLR
22:04 21.1 °F 11.2 °F 1014.8 in West 18.5 mph 18.5 mph 53 % 0.0 in 0.0 W/m2 CLR
22:09 21.1 °F 11.1 °F 1015.1 in WNW 27.8 mph 27.8 mph 53 % 0.0 in 0.0 W/m2 CLR
22:14 20.9 °F 11.0 °F 1015.1 in NW 24.1 mph 24.1 mph 53 % 0.0 in 0.0 W/m2 CLR
22:19 20.9 °F 11.2 °F 1015.1 in SW 7.4 mph 7.4 mph 54 % 0.0 in 0.0 W/m2 CLR
22:24 20.8 °F 11.2 °F 1015.1 in West 24.1 mph 24.1 mph 54 % 0.0 in 0.0 W/m2 CLR
22:29 20.8 °F 11.1 °F 1015.5 in West 20.4 mph 20.4 mph 54 % 0.0 in 0.0 W/m2 CLR
22:34 20.7 °F 11.0 °F 1015.5 in WNW 18.5 mph 18.5 mph 54 % 0.0 in 0.0 W/m2 CLR
22:39 20.6 °F 11.0 °F 1015.8 in WSW 18.5 mph 18.5 mph 54 % 0.0 in 0.0 W/m2 CLR
22:44 20.6 °F 10.9 °F 1015.8 in West 18.5 mph 18.5 mph 54 % 0.0 in 0.0 W/m2 CLR
22:49 20.6 °F 10.9 °F 1015.8 in SW 18.5 mph 18.5 mph 54 % 0.0 in 0.0 W/m2 CLR
22:54 20.5 °F 10.9 °F 1015.8 in WNW 22.2 mph 22.2 mph 54 % 0.0 in 0.0 W/m2 CLR
22:59 20.5 °F 10.9 °F 1015.8 in WNW 14.8 mph 14.8 mph 54 % 0.0 in 0.0 W/m2 CLR
23:04 20.4 °F 10.8 °F 1015.8 in West 22.2 mph 22.2 mph 54 % 0.0 in 0.0 W/m2 CLR
23:09 20.4 °F 11.1 °F 1015.8 in SW 14.8 mph 14.8 mph 55 % 0.0 in 0.0 W/m2 CLR
23:14 20.4 °F 11.1 °F 1016.1 in West 5.6 mph 5.6 mph 55 % 0.0 in 0.0 W/m2 CLR
23:15 20.4 °F 11.1 °F 1015.8 in WSW 5.6 mph 5.6 mph 55 % 0.0 in 0.0 W/m2 CLR
23:20 20.3 °F 11.0 °F 1015.8 in WSW 7.4 mph 7.4 mph 55 % 0.0 in 0.0 W/m2 CLR
23:25 20.3 °F 10.9 °F 1016.1 in SW 6.4 mph 6.4 mph 55 % 0.0 in 0.0 W/m2 CLR
23:30 20.2 °F 10.9 °F 1016.1 in WSW 1.9 mph   55 % 0.0 in 0.0 W/m2 CLR
23:35 20.1 °F 10.8 °F 1016.1 in WNW 16.1 mph 16.1 mph 55 % 0.0 in 0.0 W/m2 CLR
23:40 20.1 °F 10.7 °F 1016.1 in West 31.5 mph 31.5 mph 55 % 0.0 in 0.0 W/m2 CLR
23:45 20.0 °F 10.7 °F 1016.1 in WSW 20.4 mph 20.4 mph 55 % 0.0 in 0.0 W/m2 CLR
23:50 19.9 °F 10.6 °F 1015.8 in West 31.5 mph 31.5 mph 55 % 0.0 in 0.0 W/m2 CLR
23:55 19.8 °F 10.5 °F 1015.8 in West 18.5 mph 18.5 mph 55 % 0.0 in 0.0 W/m2 CLR
Lo Temps de Massalio
Compliments of Weather Underground - 1.25 mb